Tropical Cyclones
[Index]
Main Index Home Page Stock Weather Photos Extreme Storms Discussion Storm News and Storm Chasing Reports Tropical Cyclones / Hurricanes / Typhoons Weather Data and Links Wild Fires / Bushfires Weather Observation Techniques Weather Picture Catalogue Tornado Pictures and Reports Stock Video Footage and DVDs for sale
Season 2001-2002 Tropical Cyclone CHRIS Track Map
Season 2001-2002 Summaries (Operational Data): [AU] [SIO] [SPAC] [SH]
<<- Previous TC | 2001-2002 Season | Next TC ->>

click for intensity scale information  Lat/long Grid: Show Hide

 Date Labels: Show Hide

Operational Tropical Cyclone Data : JTWC Advisories

Name: CHRIS
Number: 0213

02 Feb 2002 05:00 UTC to 06 Feb 2002 18:00 UTC

    date/time    lat    long     hPa   cat  kts
2002-02-02 05   13.0   120.6    1003         30          
2002-02-02 14   14.0   121.0    1001         30          
2002-02-02 22   14.8   121.3     999         30          
2002-02-03 03   15.4   121.3     990    1    45          
2002-02-03 10   15.8   121.1     985    2    55          
2002-02-03 16   16.2   120.6     975    2    60          
2002-02-03 22   16.4   120.6     975    2    60          
2002-02-04 04   16.9   121.0     970    3    65          
2002-02-04 07   17.3   121.0     965    3    70          
2002-02-04 10   17.6   120.9     955    3    80          
2002-02-04 16   17.9   120.5     955    3    80          
2002-02-04 22   18.2   120.2     940    4    90          
2002-02-05 05   18.5   120.2     930    4   100          
2002-02-05 11   18.9   120.3     930    4   100          
2002-02-05 17   19.6   120.2     915    5   110          
2002-02-05 23   20.2   120.0     935    4   100          
2002-02-06 04   20.8   119.8     960    3    75          
2002-02-06 10   21.6   119.5     980    2    50          
2002-02-06 16   22.4   119.2     985    1    45          
2002-02-06 18   23.4   119.4                             
Winds are 10-min average.

Tropical cyclone tracks developed by Michael Bath using operational warnings and advisories and Google Maps.


[Australian Severe Weather index] [Copyright Notice] [Email Contacts] [Search This Site] [Privacy Policy]
Document: tropical_cyclone_chris.htm Updated: 28 May 2013